Time;durP1;ratioP1;P1;durP2;ratioP2;P2;SDS_P1;SDS_P2;PMS_P1;PMS_P2;Temp;Humidity;BMP_temperature;BMP_pressure;BME280_temperature;BME280_humidity;BME280_pressure;Samples;Min_cycle;Max_cycle;Signal;HPM_P1;HPM_P2
2022/01/18 00:01:27;;;;;;;26.60;4.78;;;7.10;99.90;;;;;;5102460;27;20047;-73
2022/01/18 00:03:54;;;;;;;23.67;4.22;;;7.50;99.90;;;;;;5119136;27;20138;-73
2022/01/18 00:06:20;;;;;;;28.52;4.05;;;7.50;99.90;;;;;;5103107;27;20139;-73
2022/01/18 00:08:46;;;;;;;24.63;4.35;;;7.30;99.90;;;;;;5119231;27;20433;-73
2022/01/18 00:11:12;;;;;;;25.00;4.95;;;7.60;99.90;;;;;;5119150;27;20104;-73
2022/01/18 00:13:44;;;;;;;38.75;6.03;;;7.60;99.90;;;;;;5137172;27;20047;-73
2022/01/18 00:16:26;;;;;;;30.60;6.13;;;7.20;99.90;;;;;;5102957;27;20051;-73
2022/01/18 00:18:53;;;;;;;28.73;4.45;;;7.40;99.90;;;;;;5118412;27;20055;-73
2022/01/18 00:21:34;;;;;;;24.77;4.68;;;7.20;99.90;;;;;;5118951;27;20055;-73
2022/01/18 00:23:59;;;;;;;32.38;5.18;;;7.20;99.90;;;;;;5118549;27;20039;-74
2022/01/18 00:26:29;;;;;;;23.65;4.40;;;7.60;99.90;;;;;;5101550;27;20084;-74
2022/01/18 00:29:00;;;;;;;28.40;4.57;;;7.10;99.90;;;;;;5102160;27;20055;-73
2022/01/18 00:34:06;;;;;;;26.55;5.03;;;7.20;99.90;;;;;;5119033;27;20108;-75
2022/01/18 00:39:13;;;;;;;30.35;4.65;;;6.90;99.90;;;;;;5118652;27;20053;-74
2022/01/18 00:41:39;;;;;;;27.75;4.28;;;6.90;99.90;;;;;;5136907;27;20125;-73
2022/01/18 00:44:07;;;;;;;27.27;4.53;;;7.30;99.90;;;;;;5118413;27;20103;-73
2022/01/18 00:46:33;;;;;;;26.27;4.18;;;6.50;99.90;;;;;;5136624;27;20043;-74
2022/01/18 00:49:01;;;;;;;26.63;4.43;;;7.10;99.90;;;;;;5101465;27;20047;-73
2022/01/18 00:51:37;;;;;;;27.20;4.57;;;6.60;99.90;;;;;;5102563;27;20078;-74
2022/01/18 00:54:04;;;;;;;23.58;4.35;;;6.70;99.90;;;;;;5118707;27;20058;-73
2022/01/18 00:56:32;;;;;;;25.58;4.38;;;6.40;99.90;;;;;;5101373;27;20131;-73
2022/01/18 00:58:59;;;;;;;18.27;4.10;;;6.90;99.90;;;;;;5102345;27;20046;-73
2022/01/18 01:01:29;;;;;;;28.75;4.85;;;7.00;99.90;;;;;;5084123;27;20055;-73
2022/01/18 01:03:59;;;;;;;22.98;4.13;;;6.60;99.90;;;;;;5136739;27;20050;-73
2022/01/18 01:06:25;;;;;;;21.65;3.97;;;6.70;99.90;;;;;;5118322;27;20043;-74
2022/01/18 01:08:51;;;;;;;22.33;4.65;;;6.50;99.90;;;;;;5117903;27;20088;-73
2022/01/18 01:11:18;;;;;;;33.53;4.35;;;6.70;99.90;;;;;;5136099;27;20035;-73
2022/01/18 01:13:47;;;;;;;26.02;5.05;;;6.70;99.90;;;;;;5101000;27;20145;-73
2022/01/18 01:17:06;;;;;;;27.45;5.05;;;6.70;99.90;;;;;;5117855;27;20498;-73
2022/01/18 01:45:50;;;;;;;22.52;4.10;;;5.80;99.90;;;;;;5117324;27;20050;-72
2022/01/18 01:48:17;;;;;;;21.02;3.70;;;6.10;99.90;;;;;;5136252;27;20126;-73
2022/01/18 01:50:48;;;;;;;26.80;4.05;;;6.10;99.90;;;;;;5101040;27;20051;-73
2022/01/18 01:53:15;;;;;;;20.23;3.63;;;6.10;99.90;;;;;;5100901;27;20055;-73
2022/01/18 01:55:42;;;;;;;24.42;3.70;;;6.10;99.90;;;;;;5118043;27;20131;-73
2022/01/18 01:58:08;;;;;;;21.15;4.25;;;5.70;99.90;;;;;;5100130;27;20043;-73
2022/01/18 02:00:40;;;;;;;23.30;3.60;;;5.80;99.90;;;;;;5116687;27;20101;-74
2022/01/18 02:03:06;;;;;;;21.63;4.17;;;6.30;99.90;;;;;;5135227;27;20047;-73
2022/01/18 02:05:31;;;;;;;23.77;3.17;;;6.20;99.90;;;;;;5099756;27;20099;-73
2022/01/18 02:07:57;;;;;;;28.15;3.45;;;5.90;99.90;;;;;;5116823;27;20395;-73
2022/01/18 02:10:23;;;;;;;23.73;4.03;;;5.90;99.90;;;;;;5116767;27;20043;-73
2022/01/18 02:12:49;;;;;;;24.33;4.20;;;5.80;99.90;;;;;;5082930;27;20047;-70
2022/01/18 02:15:17;;;;;;;19.02;3.28;;;5.70;99.90;;;;;;5116867;27;20047;-70
2022/01/18 02:23:25;;;;;;;16.98;2.67;;;5.90;99.90;;;;;;5116962;27;20098;-71
2022/01/18 02:25:51;;;;;;;22.02;3.22;;;6.60;99.90;;;;;;5134850;27;20078;-70
2022/01/18 02:28:18;;;;;;;15.77;2.88;;;6.30;99.90;;;;;;5116755;27;20082;-71
2022/01/18 02:30:45;;;;;;;20.23;3.53;;;6.00;99.90;;;;;;5134787;27;20043;-70
2022/01/18 02:33:12;;;;;;;24.98;3.60;;;6.30;99.90;;;;;;5116463;28;20049;-68
2022/01/18 02:35:38;;;;;;;19.40;3.05;;;6.30;99.90;;;;;;5116656;28;20047;-70
2022/01/18 02:38:04;;;;;;;22.65;4.07;;;6.40;99.90;;;;;;5099694;28;20077;-70
2022/01/18 02:40:31;;;;;;;18.23;3.20;;;6.20;99.90;;;;;;5134649;28;20127;-70
2022/01/18 02:43:01;;;;;;;20.23;3.00;;;6.30;99.90;;;;;;5134660;28;20047;-70
2022/01/18 02:45:28;;;;;;;21.13;3.35;;;6.60;99.90;;;;;;5116893;28;20406;-70
2022/01/18 02:47:54;;;;;;;16.55;2.65;;;6.30;99.90;;;;;;5116354;28;20039;-70
2022/01/18 02:50:24;;;;;;;18.75;2.60;;;6.90;99.90;;;;;;5134551;28;20043;-70
2022/01/18 02:52:49;;;;;;;26.15;3.00;;;6.30;99.90;;;;;;5134524;27;20521;-70
2022/01/18 02:55:15;;;;;;;16.38;2.40;;;7.20;99.90;;;;;;5120158;27;20075;-70
2022/01/18 02:57:55;;;;;;;22.17;2.45;;;6.60;99.90;;;;;;5120439;27;20130;-70
2022/01/18 03:00:31;;;;;;;13.68;2.55;;;6.50;99.90;;;;;;5138957;27;20385;-70
2022/01/18 03:03:15;;;;;;;16.88;2.88;;;6.50;99.90;;;;;;5139220;27;20463;-70
2022/01/18 03:05:41;;;;;;;17.95;3.60;;;6.40;99.90;;;;;;5105892;27;20467;-70
2022/01/18 03:08:10;;;;;;;22.35;2.60;;;6.50;99.90;;;;;;5138543;27;20051;-70
2022/01/18 03:10:36;;;;;;;21.13;3.28;;;6.50;99.90;;;;;;5103410;27;20047;-70
2022/01/18 03:13:02;;;;;;;18.70;2.45;;;6.50;99.90;;;;;;5138483;27;20130;-70
2022/01/18 03:15:27;;;;;;;17.83;2.88;;;6.60;99.90;;;;;;5120124;27;20456;-70
2022/01/18 03:17:53;;;;;;;17.98;2.92;;;6.50;99.90;;;;;;5119820;27;20061;-70
2022/01/18 03:20:20;;;;;;;18.00;2.17;;;6.60;99.90;;;;;;5119921;27;20051;-70
2022/01/18 03:22:48;;;;;;;19.83;2.90;;;6.90;99.90;;;;;;5138307;27;20191;-70
2022/01/18 03:25:38;;;;;;;16.90;2.42;;;6.40;99.90;;;;;;5138692;27;20082;-70
2022/01/18 03:28:07;;;;;;;18.27;2.92;;;7.00;99.90;;;;;;5138191;27;20043;-70
2022/01/18 03:30:41;;;;;;;19.83;2.60;;;6.60;99.90;;;;;;5119888;27;20188;-70
2022/01/18 03:33:13;;;;;;;11.05;2.08;;;7.00;99.90;;;;;;5119677;27;20049;-70
2022/01/18 03:35:40;;;;;;;17.48;2.22;;;7.20;99.90;;;;;;5138340;27;20062;-70
2022/01/18 03:38:06;;;;;;;13.50;1.90;;;7.10;99.90;;;;;;5119884;27;20070;-70
2022/01/18 03:40:32;;;;;;;16.92;2.58;;;6.50;99.90;;;;;;5137952;27;20054;-69
2022/01/18 03:42:59;;;;;;;15.07;2.20;;;7.20;99.90;;;;;;5138671;27;20046;-70
2022/01/18 03:45:29;;;;;;;17.10;2.40;;;6.90;99.90;;;;;;5119395;27;20095;-71
2022/01/18 03:47:59;;;;;;;14.95;2.78;;;6.70;99.90;;;;;;5138610;27;20039;-71
2022/01/18 03:50:26;;;;;;;15.40;2.42;;;7.10;99.90;;;;;;5137396;27;20499;-70
2022/01/18 03:52:53;;;;;;;18.67;1.75;;;7.30;99.90;;;;;;5138304;27;20070;-70
2022/01/18 03:55:21;;;;;;;14.90;2.25;;;6.80;99.90;;;;;;5119520;27;20051;-70
2022/01/18 03:57:48;;;;;;;12.27;2.60;;;7.50;99.90;;;;;;5137604;27;20099;-71
2022/01/18 04:00:20;;;;;;;13.52;1.60;;;7.10;99.90;;;;;;5119444;27;20058;-71
2022/01/18 04:02:47;;;;;;;14.63;2.05;;;6.70;99.90;;;;;;5119918;27;20051;-71
2022/01/18 04:05:13;;;;;;;12.88;2.17;;;7.30;99.90;;;;;;5136931;27;20043;-71
2022/01/18 04:07:40;;;;;;;12.85;1.80;;;6.80;99.90;;;;;;5119291;27;20493;-71
2022/01/18 04:10:07;;;;;;;12.10;2.50;;;7.20;99.90;;;;;;5137366;27;20044;-70
2022/01/18 04:12:34;;;;;;;16.05;2.08;;;6.90;99.90;;;;;;5137255;27;20074;-71
2022/01/18 04:15:01;;;;;;;12.32;1.42;;;7.40;99.90;;;;;;5118959;27;20518;-71
2022/01/18 04:30:55;;;;;;;11.52;1.70;;;7.20;99.90;;;;;;5117117;27;20055;-71
2022/01/18 04:33:21;;;;;;;16.20;1.88;;;7.30;99.90;;;;;;5119100;27;20383;-71
2022/01/18 04:35:47;;;;;;;11.77;1.52;;;7.10;99.90;;;;;;5136996;27;20467;-71
2022/01/18 04:38:13;;;;;;;16.17;1.55;;;7.20;99.90;;;;;;5118771;27;20083;-70
2022/01/18 04:40:42;;;;;;;9.77;1.33;;;6.60;99.90;;;;;;5136768;27;20088;-71
2022/01/18 04:48:35;;;;;;;12.95;1.30;;;6.90;99.90;;;;;;5136638;27;20051;-70
2022/01/18 04:51:07;;;;;;;11.77;1.65;;;7.20;99.90;;;;;;5120464;27;20051;-72
2022/01/18 04:53:35;;;;;;;9.87;1.13;;;7.00;99.90;;;;;;5136632;27;20050;-71
2022/01/18 04:56:07;;;;;;;10.18;1.35;;;7.30;99.90;;;;;;5119207;27;20051;-71
2022/01/18 04:58:33;;;;;;;12.82;1.20;;;7.00;99.90;;;;;;5119210;27;20046;-71
2022/01/18 05:01:01;;;;;;;7.47;1.63;;;6.90;99.90;;;;;;5136505;27;20043;-70
2022/01/18 05:03:28;;;;;;;11.02;1.48;;;6.70;99.90;;;;;;5136811;27;20039;-71
2022/01/18 05:05:57;;;;;;;14.40;1.42;;;6.90;99.90;;;;;;5101231;27;20196;-71
2022/01/18 05:08:24;;;;;;;9.63;1.30;;;7.10;99.90;;;;;;5136229;27;20103;-71
2022/01/18 05:10:57;;;;;;;8.32;1.30;;;7.00;99.90;;;;;;5118919;27;20483;-71
2022/01/18 05:16:29;;;;;;;13.85;2.03;;;6.90;99.90;;;;;;5135531;27;20092;-71
2022/01/18 05:19:10;;;;;;;13.45;1.45;;;6.80;99.90;;;;;;5135655;27;20444;-71
2022/01/18 05:24:25;;;;;;;7.55;1.40;;;7.20;99.90;;;;;;5135858;27;20043;-71
2022/01/18 05:26:51;;;;;;;8.70;1.95;;;7.00;99.90;;;;;;5135884;27;20043;-71
2022/01/18 05:29:18;;;;;;;11.90;1.48;;;6.80;99.90;;;;;;5136364;27;20050;-71
2022/01/18 05:31:44;;;;;;;13.98;1.30;;;6.90;99.90;;;;;;5135718;27;20046;-70
2022/01/18 05:34:10;;;;;;;11.85;1.65;;;7.40;99.90;;;;;;5100549;27;20399;-71
2022/01/18 05:36:36;;;;;;;13.95;1.33;;;7.10;99.90;;;;;;5135749;27;20043;-70
2022/01/18 05:39:03;;;;;;;13.25;1.27;;;6.80;99.90;;;;;;5117572;27;20043;-71
2022/01/18 05:41:28;;;;;;;9.70;1.40;;;6.90;99.90;;;;;;5118264;27;20486;-71
2022/01/18 05:43:54;;;;;;;9.77;1.20;;;6.80;99.90;;;;;;5117315;27;20039;-71
2022/01/18 05:46:20;;;;;;;10.88;1.20;;;6.90;99.90;;;;;;5136038;27;20051;-70
2022/01/18 05:48:46;;;;;;;13.65;1.80;;;7.10;99.90;;;;;;5117211;27;20039;-71
2022/01/18 05:51:12;;;;;;;10.93;1.10;;;7.20;99.90;;;;;;5135643;27;20054;-71
2022/01/18 05:53:39;;;;;;;9.00;1.45;;;7.20;99.90;;;;;;5135397;27;20479;-71
2022/01/18 05:56:11;;;;;;;10.15;1.30;;;7.10;99.90;;;;;;5135277;27;20043;-71
2022/01/18 05:58:45;;;;;;;7.68;1.10;;;7.30;99.90;;;;;;5135902;27;20043;-71
2022/01/18 06:01:14;;;;;;;8.05;1.40;;;7.20;99.90;;;;;;5117548;27;20050;-71
2022/01/18 06:04:08;;;;;;;12.77;1.70;;;7.30;99.90;;;;;;5116789;27;20422;-71
2022/01/18 06:06:54;;;;;;;10.48;1.40;;;7.50;99.90;;;;;;5135142;27;20051;-71
2022/01/18 06:09:23;;;;;;;7.68;1.10;;;6.90;99.90;;;;;;5135709;27;20125;-71
2022/01/18 06:11:49;;;;;;;10.70;1.33;;;7.10;99.90;;;;;;5135106;27;20053;-71
2022/01/18 06:14:15;;;;;;;9.77;1.15;;;7.20;99.90;;;;;;5135037;27;20039;-71
2022/01/18 06:16:41;;;;;;;12.43;1.33;;;7.00;99.90;;;;;;5134985;27;20045;-71
2022/01/18 06:19:07;;;;;;;12.60;1.23;;;7.20;99.90;;;;;;5134682;27;20066;-71
2022/01/18 06:21:32;;;;;;;9.48;1.42;;;7.20;99.90;;;;;;5134865;27;20043;-71
2022/01/18 06:23:58;;;;;;;9.32;1.35;;;7.30;99.90;;;;;;5136036;27;20130;-72
2022/01/18 06:26:24;;;;;;;10.90;1.90;;;7.30;99.90;;;;;;5134832;27;20129;-72
2022/01/18 06:28:50;;;;;;;5.10;0.90;;;7.10;99.90;;;;;;5135547;27;20043;-71
2022/01/18 06:31:16;;;;;;;7.22;1.17;;;6.90;99.90;;;;;;5117434;27;20047;-71
2022/01/18 06:33:41;;;;;;;8.57;1.10;;;7.20;99.90;;;;;;5134759;27;20089;-71
2022/01/18 06:36:07;;;;;;;9.15;1.13;;;7.00;99.90;;;;;;5134487;28;20047;-71
2022/01/18 06:38:33;;;;;;;10.00;1.17;;;7.00;99.90;;;;;;5134786;28;20058;-72
2022/01/18 06:40:59;;;;;;;12.02;1.40;;;7.10;99.90;;;;;;5134750;28;20058;-71
2022/01/18 06:43:24;;;;;;;12.38;1.05;;;7.60;99.90;;;;;;5134799;28;20065;-71
2022/01/18 06:45:50;;;;;;;11.82;1.95;;;7.20;99.90;;;;;;5083358;28;20047;-71
2022/01/18 06:48:16;;;;;;;6.90;1.27;;;7.30;99.90;;;;;;5116117;28;20047;-71
2022/01/18 06:50:42;;;;;;;8.20;1.52;;;7.00;99.90;;;;;;5134638;28;20050;-71
2022/01/18 06:53:07;;;;;;;11.85;1.30;;;7.10;99.90;;;;;;5117101;28;20051;-71
2022/01/18 06:55:33;;;;;;;6.75;1.10;;;7.10;99.90;;;;;;5134542;28;20043;-71
2022/01/18 06:58:01;;;;;;;4.70;0.80;;;7.10;99.90;;;;;;5116520;28;20122;-71
2022/01/18 07:00:26;;;;;;;6.93;1.23;;;7.20;99.90;;;;;;5116423;28;20126;-71
2022/01/18 07:02:52;;;;;;;8.25;1.13;;;7.10;99.90;;;;;;5099260;28;20138;-71
2022/01/18 07:05:18;;;;;;;7.55;1.00;;;7.20;99.90;;;;;;5116174;28;20042;-71
2022/01/18 07:07:47;;;;;;;6.43;0.70;;;7.10;99.90;;;;;;5134460;28;20130;-71
2022/01/18 07:10:13;;;;;;;4.85;1.00;;;7.00;99.90;;;;;;5135026;28;20061;-71
2022/01/18 07:12:39;;;;;;;6.05;0.80;;;7.30;99.90;;;;;;5116613;28;20043;-71
2022/01/18 07:15:06;;;;;;;3.50;0.70;;;7.20;99.90;;;;;;5134396;28;20126;-71
2022/01/18 07:17:33;;;;;;;5.32;0.90;;;7.10;99.90;;;;;;5134188;28;20055;-71
2022/01/18 07:19:59;;;;;;;5.82;0.77;;;7.40;99.90;;;;;;5134261;28;20051;-72
2022/01/18 07:22:25;;;;;;;4.93;0.98;;;6.90;99.90;;;;;;5134569;28;20043;-71
2022/01/18 07:24:56;;;;;;;5.57;0.70;;;7.20;99.90;;;;;;5115858;28;20047;-71
2022/01/18 07:27:22;;;;;;;5.65;0.68;;;7.20;99.90;;;;;;5116975;28;20451;-71
2022/01/18 07:29:48;;;;;;;4.20;0.60;;;7.00;99.90;;;;;;5134132;28;20042;-71
2022/01/18 07:32:14;;;;;;;5.68;0.80;;;7.50;99.90;;;;;;5134723;28;20122;-71
2022/01/18 07:34:48;;;;;;;4.13;0.88;;;7.10;99.90;;;;;;5116906;28;20184;-71
2022/01/18 07:37:14;;;;;;;8.20;1.02;;;7.10;99.90;;;;;;5134210;28;20051;-71
2022/01/18 07:39:40;;;;;;;5.40;0.95;;;7.00;99.90;;;;;;5134796;27;20043;-71
2022/01/18 07:42:06;;;;;;;3.20;0.70;;;7.40;99.90;;;;;;5119578;27;20049;-71
2022/01/18 07:44:32;;;;;;;2.67;0.93;;;7.20;99.90;;;;;;5137776;27;20039;-71
2022/01/18 07:46:58;;;;;;;8.02;0.70;;;7.20;99.90;;;;;;5102857;27;20051;-71
2022/01/18 07:49:23;;;;;;;3.05;0.65;;;7.40;99.90;;;;;;5119331;27;20047;-71
2022/01/18 07:51:50;;;;;;;3.53;0.88;;;7.50;99.90;;;;;;5137660;27;20058;-71
2022/01/18 07:54:16;;;;;;;2.90;0.60;;;6.80;99.90;;;;;;5137712;27;20075;-72
2022/01/18 07:56:42;;;;;;;5.72;0.70;;;7.30;99.90;;;;;;5137673;27;20488;-71
2022/01/18 07:59:09;;;;;;;5.70;0.80;;;7.30;99.90;;;;;;5137298;27;20043;-71
2022/01/18 08:01:35;;;;;;;3.40;0.65;;;7.30;99.90;;;;;;5138225;27;20047;-71
2022/01/18 08:04:00;;;;;;;5.63;0.88;;;7.30;99.90;;;;;;5137411;27;20039;-71
2022/01/18 08:06:26;;;;;;;10.77;1.20;;;7.30;99.90;;;;;;5119541;27;20471;-71
2022/01/18 08:08:52;;;;;;;6.57;0.98;;;7.40;99.90;;;;;;5137431;27;20066;-71
2022/01/18 08:11:18;;;;;;;4.50;0.88;;;7.10;99.90;;;;;;5102162;27;20055;-71
2022/01/18 08:13:47;;;;;;;6.05;0.80;;;7.60;99.90;;;;;;5102046;27;20096;-71
2022/01/18 08:18:51;;;;;;;4.90;0.73;;;7.50;99.90;;;;;;5120091;27;20055;-71
2022/01/18 08:21:17;;;;;;;6.10;0.70;;;7.20;99.90;;;;;;5137805;27;20484;-72
2022/01/18 08:23:43;;;;;;;7.97;1.10;;;7.40;99.90;;;;;;5136993;27;20406;-71
2022/01/18 08:26:09;;;;;;;6.00;0.80;;;7.70;99.90;;;;;;5137050;27;20043;-72
2022/01/18 08:28:35;;;;;;;3.47;0.80;;;7.10;99.90;;;;;;5137005;27;20487;-71
2022/01/18 08:31:00;;;;;;;6.70;0.70;;;7.10;99.90;;;;;;5136886;27;20042;-71
2022/01/18 08:33:26;;;;;;;7.22;0.98;;;7.10;99.90;;;;;;5136941;27;20463;-71
2022/01/18 08:35:52;;;;;;;5.40;0.90;;;7.60;99.90;;;;;;5136885;27;20130;-71
2022/01/18 08:38:18;;;;;;;4.35;0.88;;;7.10;99.90;;;;;;5119001;27;20047;-72
2022/01/18 08:40:44;;;;;;;4.90;0.82;;;7.60;99.90;;;;;;5118478;27;20115;-72
2022/01/18 08:43:10;;;;;;;4.50;0.88;;;7.60;99.90;;;;;;5118902;27;20051;-72
2022/01/18 08:45:36;;;;;;;4.95;1.10;;;7.20;99.90;;;;;;5101302;27;20054;-72
2022/01/18 08:48:02;;;;;;;2.65;1.05;;;7.20;99.90;;;;;;5137214;27;20046;-72
2022/01/18 08:50:28;;;;;;;6.25;0.70;;;7.30;99.90;;;;;;5136065;27;20051;-73
2022/01/18 08:52:54;;;;;;;4.57;0.70;;;7.10;99.90;;;;;;5117408;27;20054;-72
2022/01/18 08:55:21;;;;;;;6.30;1.05;;;7.30;99.90;;;;;;5136524;27;20074;-70
2022/01/18 08:57:47;;;;;;;4.28;0.80;;;7.30;99.90;;;;;;5118362;27;20464;-71
2022/01/18 09:00:15;;;;;;;6.05;0.80;;;7.30;99.90;;;;;;5136945;27;20047;-71
2022/01/18 09:02:42;;;;;;;3.53;0.77;;;7.40;99.90;;;;;;5117923;27;20058;-70
2022/01/18 09:05:08;;;;;;;3.80;0.77;;;7.30;99.90;;;;;;5118049;27;20039;-71
2022/01/18 09:07:37;;;;;;;5.00;0.70;;;7.30;99.90;;;;;;5136466;27;20468;-70
2022/01/18 09:10:07;;;;;;;6.72;0.93;;;7.30;99.90;;;;;;5136201;27;20127;-71
2022/01/18 09:12:34;;;;;;;14.48;5.28;;;7.40;99.90;;;;;;5136769;27;20107;-71
2022/01/18 09:15:00;;;;;;;6.53;1.35;;;7.40;99.90;;;;;;5136043;27;20082;-72
2022/01/18 09:17:30;;;;;;;7.38;1.60;;;7.30;99.90;;;;;;5118737;27;20170;-72
2022/01/18 09:19:56;;;;;;;11.70;4.05;;;7.30;99.90;;;;;;5100791;27;20050;-72
2022/01/18 09:22:22;;;;;;;6.00;1.13;;;7.60;99.90;;;;;;5136024;27;20087;-72
2022/01/18 09:24:48;;;;;;;6.00;1.10;;;7.30;99.90;;;;;;5135797;27;20413;-72
2022/01/18 09:27:15;;;;;;;7.97;1.08;;;7.60;99.90;;;;;;5117615;27;20082;-73
2022/01/18 09:29:41;;;;;;;4.82;1.02;;;7.80;99.90;;;;;;5135747;27;20050;-72
2022/01/18 09:32:07;;;;;;;7.13;0.98;;;7.40;99.90;;;;;;5117747;27;20035;-72
2022/01/18 09:34:33;;;;;;;6.25;0.80;;;7.40;99.90;;;;;;5136490;27;20039;-72
2022/01/18 09:36:59;;;;;;;6.80;1.45;;;7.40;99.90;;;;;;5100679;27;20059;-73
2022/01/18 09:39:25;;;;;;;5.25;0.98;;;7.30;99.90;;;;;;5136168;27;20051;-72
2022/01/18 09:41:53;;;;;;;8.70;1.80;;;7.50;99.90;;;;;;5136186;27;20539;-73
2022/01/18 09:44:20;;;;;;;5.93;1.00;;;7.40;99.90;;;;;;5135984;27;20031;-73
2022/01/18 09:46:49;;;;;;;7.80;1.23;;;7.50;99.90;;;;;;5135486;27;20054;-72
2022/01/18 09:49:17;;;;;;;9.23;1.25;;;7.60;99.90;;;;;;5135438;27;20039;-72
2022/01/18 09:51:43;;;;;;;6.65;1.25;;;7.70;99.90;;;;;;5116799;27;20053;-72
2022/01/18 09:54:09;;;;;;;5.43;0.80;;;7.60;99.90;;;;;;5117014;27;20164;-72
2022/01/18 09:56:35;;;;;;;6.47;1.05;;;7.50;99.90;;;;;;5117801;27;20134;-71
2022/01/18 09:59:01;;;;;;;4.85;1.42;;;7.70;99.90;;;;;;5117047;27;20434;-72
2022/01/18 10:01:28;;;;;;;5.15;0.75;;;7.60;99.90;;;;;;5135599;27;20130;-72
2022/01/18 10:04:12;;;;;;;5.03;1.48;;;7.50;99.90;;;;;;5134287;27;20100;-70
2022/01/18 10:06:39;;;;;;;7.63;1.73;;;7.70;99.90;;;;;;5134664;27;20046;-70
2022/01/18 10:09:11;;;;;;;6.95;1.20;;;7.50;99.90;;;;;;5116934;27;20090;-70
2022/01/18 10:11:37;;;;;;;5.80;1.25;;;7.80;99.90;;;;;;5134644;27;20130;-69
2022/01/18 10:14:03;;;;;;;4.40;0.85;;;7.70;99.90;;;;;;5116066;27;20096;-70
2022/01/18 10:16:28;;;;;;;5.88;1.00;;;7.60;99.90;;;;;;5134882;27;20043;-70
2022/01/18 10:19:00;;;;;;;5.35;1.70;;;7.50;99.90;;;;;;5134419;27;20055;-70
2022/01/18 10:21:34;;;;;;;10.70;1.20;;;7.60;99.90;;;;;;5116860;27;20051;-70
2022/01/18 10:24:12;;;;;;;6.60;1.17;;;7.90;99.90;;;;;;5116946;27;20050;-70
2022/01/18 10:26:41;;;;;;;8.95;1.35;;;7.70;99.90;;;;;;5115842;27;20100;-71
2022/01/18 10:29:07;;;;;;;4.53;1.10;;;7.60;99.90;;;;;;5135092;27;20043;-70
2022/01/18 10:31:43;;;;;;;11.52;5.22;;;7.50;99.90;;;;;;5099080;27;20071;-70
2022/01/18 10:34:20;;;;;;;8.30;2.40;;;7.70;99.90;;;;;;5134335;27;20046;-70
2022/01/18 10:37:04;;;;;;;5.65;1.25;;;7.60;99.90;;;;;;5134465;27;20070;-70
2022/01/18 10:39:34;;;;;;;5.50;1.48;;;7.50;99.90;;;;;;5116166;28;20039;-70
2022/01/18 10:42:12;;;;;;;8.30;1.35;;;7.80;99.90;;;;;;5134125;28;20395;-70
2022/01/18 10:44:38;;;;;;;5.45;0.90;;;7.80;99.90;;;;;;5134288;28;20046;-70
2022/01/18 10:47:03;;;;;;;5.82;1.23;;;7.90;99.90;;;;;;5099143;28;20599;-70
2022/01/18 10:49:39;;;;;;;5.53;1.20;;;7.70;99.90;;;;;;5133701;28;20066;-70
2022/01/18 10:52:11;;;;;;;4.95;1.10;;;8.20;99.90;;;;;;5115766;28;20047;-71
2022/01/18 10:54:43;;;;;;;7.43;1.20;;;7.70;99.90;;;;;;5116015;28;20051;-70
2022/01/18 10:57:12;;;;;;;9.23;1.38;;;7.80;99.90;;;;;;5133933;28;20043;-70
2022/01/18 10:59:39;;;;;;;6.47;0.90;;;7.80;99.90;;;;;;5115533;28;20081;-70
2022/01/18 11:02:10;;;;;;;7.20;0.93;;;7.90;99.90;;;;;;5133584;28;20055;-70
2022/01/18 11:04:38;;;;;;;4.05;0.85;;;7.90;99.90;;;;;;5115967;28;20046;-70
2022/01/18 11:07:04;;;;;;;5.03;0.70;;;7.90;99.90;;;;;;5133976;28;20075;-71
2022/01/18 11:09:32;;;;;;;4.28;0.70;;;7.90;99.90;;;;;;5098634;28;20066;-71
2022/01/18 11:11:58;;;;;;;5.43;0.70;;;7.90;99.90;;;;;;5115540;28;20059;-70
2022/01/18 11:14:25;;;;;;;4.63;0.70;;;7.80;99.90;;;;;;5098745;27;20127;-72
2022/01/18 11:16:55;;;;;;;5.43;0.60;;;7.80;99.90;;;;;;5138221;27;20079;-71
2022/01/18 11:22:00;;;;;;;7.18;0.80;;;7.80;99.90;;;;;;5137261;27;20062;-71
2022/01/18 11:24:28;;;;;;;3.83;0.60;;;7.90;99.90;;;;;;5138301;27;20039;-71
2022/01/18 11:26:55;;;;;;;6.25;0.50;;;7.80;99.90;;;;;;5138625;27;20388;-71
2022/01/18 11:29:21;;;;;;;6.07;1.10;;;7.80;99.90;;;;;;5138455;27;20085;-71
2022/01/18 11:31:51;;;;;;;2.92;0.80;;;7.90;99.90;;;;;;5139128;27;20344;-71
2022/01/18 11:34:53;;;;;;;5.43;1.00;;;7.80;99.90;;;;;;5120284;27;20134;-71
2022/01/18 11:37:38;;;;;;;4.75;0.80;;;7.90;99.90;;;;;;5097362;27;20066;-71
2022/01/18 11:40:10;;;;;;;9.27;1.60;;;7.90;99.90;;;;;;5139019;27;20047;-72
2022/01/18 11:42:39;;;;;;;6.25;0.95;;;7.90;99.90;;;;;;5103332;27;20058;-71
2022/01/18 11:45:23;;;;;;;4.80;1.00;;;7.90;99.90;;;;;;5119398;27;20050;-71
2022/01/18 11:48:05;;;;;;;6.68;1.00;;;7.90;99.90;;;;;;5138630;27;20383;-71
2022/01/18 11:50:37;;;;;;;6.50;0.80;;;7.90;99.90;;;;;;5138395;27;20391;-71
2022/01/18 11:56:35;;;;;;;7.43;0.98;;;8.00;99.90;;;;;;5137992;27;20050;-71
2022/01/18 11:59:17;;;;;;;4.30;0.73;;;7.90;99.90;;;;;;5137666;27;20039;-70
2022/01/18 12:01:47;;;;;;;9.55;1.17;;;7.90;99.90;;;;;;5138041;27;20425;-70
2022/01/18 12:04:12;;;;;;;3.55;1.20;;;8.10;99.90;;;;;;5138027;27;20040;-70
2022/01/18 12:06:46;;;;;;;7.80;1.10;;;8.10;99.90;;;;;;5119605;27;20054;-69
2022/01/18 12:09:37;;;;;;;3.15;0.90;;;8.30;99.90;;;;;;5119081;27;20104;-70
2022/01/18 12:12:04;;;;;;;5.28;0.88;;;7.90;99.90;;;;;;5120067;27;20043;-71
2022/01/18 12:14:33;;;;;;;7.05;1.00;;;7.80;99.90;;;;;;5119120;27;20487;-70
2022/01/18 12:17:17;;;;;;;5.40;1.20;;;8.10;99.90;;;;;;5137109;27;20103;-70
2022/01/18 12:19:45;;;;;;;7.25;1.00;;;7.90;99.90;;;;;;5118544;27;20062;-70
2022/01/18 12:22:11;;;;;;;7.38;1.20;;;7.80;99.90;;;;;;5137997;27;20077;-70
2022/01/18 12:24:37;;;;;;;5.35;0.95;;;8.10;99.90;;;;;;5137015;27;20035;-70
2022/01/18 12:27:35;;;;;;;6.30;1.63;;;7.90;99.90;;;;;;5118671;27;20130;-70
2022/01/18 12:33:20;;;;;;;5.55;1.00;;;8.20;99.90;;;;;;5108150;27;20086;-71
2022/01/18 12:35:47;;;;;;;8.93;1.38;;;8.40;99.90;;;;;;5118621;27;20043;-71
2022/01/18 12:38:25;;;;;;;7.50;1.27;;;7.80;99.90;;;;;;5136870;27;20372;-71
2022/01/18 12:40:53;;;;;;;7.75;1.42;;;7.90;99.90;;;;;;5101542;27;20394;-71
2022/01/18 12:46:04;;;;;;;4.85;1.30;;;7.90;99.90;;;;;;5136589;27;20048;-71
2022/01/18 12:48:31;;;;;;;12.65;2.28;;;8.10;99.90;;;;;;5137263;27;20170;-70
2022/01/18 12:50:58;;;;;;;8.05;1.48;;;8.10;99.90;;;;;;5137386;27;20409;-71
2022/01/18 12:53:30;;;;;;;7.53;1.73;;;8.50;99.90;;;;;;5136516;27;20043;-71
2022/01/18 12:56:01;;;;;;;5.55;1.35;;;7.90;99.90;;;;;;5137420;27;20045;-71
2022/01/18 12:58:36;;;;;;;7.55;1.40;;;8.10;99.90;;;;;;5137061;27;20099;-71
2022/01/18 13:01:14;;;;;;;10.10;1.80;;;8.30;99.90;;;;;;5136324;27;20452;-72
2022/01/18 13:03:48;;;;;;;6.50;1.52;;;7.70;99.90;;;;;;5136952;27;20047;-72
2022/01/18 13:06:17;;;;;;;4.80;1.08;;;7.80;99.90;;;;;;5136364;27;20543;-68
2022/01/18 13:09:00;;;;;;;6.82;1.23;;;7.70;99.90;;;;;;5136233;27;20047;-71
2022/01/18 13:11:29;;;;;;;7.43;1.20;;;8.10;99.90;;;;;;5118095;27;20058;-71
2022/01/18 13:14:06;;;;;;;7.45;1.15;;;7.70;99.90;;;;;;5136123;27;20519;-72
2022/01/18 13:27:45;;;;;;;5.25;1.10;;;7.60;99.90;;;;;;5135999;27;20047;-68
2022/01/18 13:30:23;;;;;;;6.53;1.33;;;7.50;99.90;;;;;;5135715;27;20039;-71
2022/01/18 13:32:51;;;;;;;6.25;1.30;;;7.70;99.90;;;;;;5117407;27;20061;-72
2022/01/18 13:35:20;;;;;;;4.90;1.20;;;7.60;99.90;;;;;;5117630;27;20088;-71
2022/01/18 13:37:46;;;;;;;7.78;1.20;;;7.70;99.90;;;;;;5134642;27;20558;-72
2022/01/18 13:40:17;;;;;;;5.22;1.10;;;7.80;99.90;;;;;;5117866;27;20043;-71
2022/01/18 13:42:49;;;;;;;6.55;1.35;;;7.80;99.90;;;;;;5135348;27;20491;-70
2022/01/18 13:45:24;;;;;;;3.92;1.10;;;7.50;99.90;;;;;;5117046;27;20071;-71
2022/01/18 13:47:52;;;;;;;7.15;1.40;;;7.90;99.90;;;;;;5135196;27;20046;-71
2022/01/18 13:50:45;;;;;;;5.50;1.13;;;7.60;99.90;;;;;;5135829;27;20506;-71
2022/01/18 13:53:18;;;;;;;7.30;1.20;;;7.60;99.90;;;;;;5135438;27;20043;-70
2022/01/18 13:55:48;;;;;;;;;;;7.50;99.90;;;;;;5118046;27;20427;-71
2022/01/18 13:58:22;;;;;;;6.07;0.90;;;7.50;99.90;;;;;;5135880;27;20367;-71
2022/01/18 14:00:48;;;;;;;5.55;1.10;;;7.50;99.90;;;;;;5135797;27;20185;-71
2022/01/18 14:03:36;;;;;;;5.30;1.30;;;7.40;99.90;;;;;;5117168;27;20044;-70
2022/01/18 14:06:02;;;;;;;6.63;1.75;;;7.40;99.90;;;;;;5117587;27;20043;-70
2022/01/18 14:08:33;;;;;;;4.30;1.50;;;7.50;99.90;;;;;;5135189;27;20058;-72
2022/01/18 14:11:10;;;;;;;6.18;1.27;;;7.40;99.90;;;;;;5116877;27;20082;-72
2022/01/18 14:13:38;;;;;;;5.45;1.20;;;7.50;99.90;;;;;;5135168;27;20107;-72
2022/01/18 14:16:21;;;;;;;7.05;1.63;;;7.40;99.90;;;;;;5135656;27;20043;-73
2022/01/18 14:18:58;;;;;;;;;;;7.30;99.90;;;;;;5135205;27;20054;-72
2022/01/18 14:21:37;;;;;;;4.65;1.30;;;7.40;99.90;;;;;;5135715;27;19920;-71
2022/01/18 14:24:14;;;;;;;8.88;1.67;;;7.40;99.90;;;;;;5134873;27;20118;-71
2022/01/18 14:26:52;;;;;;;9.35;1.77;;;7.70;99.90;;;;;;5134910;27;20051;-72
2022/01/18 14:29:24;;;;;;;7.75;2.03;;;7.60;99.90;;;;;;5134820;27;20095;-72
2022/01/18 14:32:26;;;;;;;9.07;1.92;;;7.30;99.90;;;;;;5134773;27;20046;-71